Sloman Herakles — V2FY4 — position and weather

sailwx.info

Track history (hours):
 
Tides and Currents Weather Stations Pressure Air Temp Water Temp Dewpoint Dewpoint Depression Visibility Wind Speed Wind Dir Waves Ship Positions

Sloman Herakles

Last reported at 2014-Aug-03 07:15 UTC. Time now 2014-Sep-02 01:45 UTC.
Position N 29°23' W 094°49'.
Warning: this ship's position is 29 days out of date.

Length 145 m; draft 9.6 m.

Type: Ship (hazmat cat C). MMSI: 305851000.

Date/timePositionNaut miles runAvg speedWind from/ knotsBaromVisibWave heightAir tempDewpointWater temp
2014-Aug-03 07:15N 29°23' W 094°49'7 9.3
2014-Aug-03 06:33N 29°29' W 094°52'10 9.9
2014-Aug-03 05:33N 29°38' W 094°58'8 7.8
2014-Aug-03 04:33N 29°44' W 095°03'3 0.1
2014-Aug-01 16:06N 29°45' W 095°06'1 2.3
2014-Aug-01 15:33N 29°46' W 095°05'8 7.8
2014-Aug-01 14:33N 29°40' W 094°59'1111.1
2014-Aug-01 13:33N 29°30' W 094°53'1111.3
2014-Aug-01 12:33N 29°21' W 094°46'  
Track history (hours):
 
Tides and Currents Weather Stations Pressure Air Temp Water Temp Dewpoint Dewpoint Depression Visibility Wind Speed Wind Dir Waves Ship Positions

Sloman Herakles

Last reported at 2014-Aug-03 07:15 UTC. Time now 2014-Sep-02 01:45 UTC.
Position N 29°23' W 094°49'.
Warning: this ship's position is 29 days out of date.

Length 145 m; draft 9.6 m.

Type: Ship (hazmat cat C). MMSI: 305851000.

Date/timePositionNaut miles runAvg speedWind from/ knotsBaromVisibWave heightAir tempDewpointWater temp
2014-Aug-03 07:15N 29°23' W 094°49'7 9.3
2014-Aug-03 06:33N 29°29' W 094°52'10 9.9
2014-Aug-03 05:33N 29°38' W 094°58'8 7.8
2014-Aug-03 04:33N 29°44' W 095°03'3 0.1
2014-Aug-01 16:06N 29°45' W 095°06'1 2.3
2014-Aug-01 15:33N 29°46' W 095°05'8 7.8
2014-Aug-01 14:33N 29°40' W 094°59'1111.1
2014-Aug-01 13:33N 29°30' W 094°53'1111.3
2014-Aug-01 12:33N 29°21' W 094°46'  

Dump ship's entire track history